Time;durP1;ratioP1;P1;durP2;ratioP2;P2;SDS_P1;SDS_P2;PMS_P1;PMS_P2;Temp;Humidity;BMP_temperature;BMP_pressure;BME280_temperature;BME280_humidity;BME280_pressure;Samples;Min_cycle;Max_cycle;Signal;HPM_P1;HPM_P2
2022/08/13 00:01:51;;;;;;;4.30;3.42;;;23.20;99.90;;;;;;4991026;28;20092;-78
2022/08/13 00:04:17;;;;;;;3.83;3.50;;;23.30;99.90;;;;;;4994055;28;20113;-78
2022/08/13 00:09:14;;;;;;;4.22;3.28;;;23.30;99.90;;;;;;5012561;28;20034;-78
2022/08/13 00:14:35;;;;;;;4.30;3.70;;;23.00;99.90;;;;;;5012996;28;20521;-78
2022/08/13 00:17:03;;;;;;;4.03;3.35;;;23.00;99.90;;;;;;5012725;28;20037;-78
2022/08/13 00:19:30;;;;;;;3.70;3.40;;;23.10;99.90;;;;;;5031138;28;20470;-78
2022/08/13 00:21:59;;;;;;;6.93;3.60;;;22.90;99.90;;;;;;5031904;28;20048;-78
2022/08/13 00:24:29;;;;;;;5.60;3.47;;;22.80;99.90;;;;;;5032611;28;20030;-78
2022/08/13 00:26:59;;;;;;;4.57;3.10;;;23.00;99.90;;;;;;5031752;28;20521;-78
2022/08/13 00:29:27;;;;;;;4.47;3.70;;;23.10;99.90;;;;;;5031881;28;20037;-78
2022/08/13 00:31:54;;;;;;;3.97;3.47;;;22.80;99.90;;;;;;5032788;28;20022;-79
2022/08/13 00:34:29;;;;;;;5.45;3.85;;;22.60;99.90;;;;;;5032335;28;20026;-78
2022/08/13 00:36:54;;;;;;;4.63;3.65;;;22.40;99.90;;;;;;5031974;28;20036;-79
2022/08/13 00:39:22;;;;;;;4.10;3.50;;;22.30;99.90;;;;;;5032385;28;20104;-78
2022/08/13 00:41:48;;;;;;;4.18;3.47;;;22.30;99.90;;;;;;5032486;28;20033;-78
2022/08/13 00:44:17;;;;;;;4.93;3.67;;;22.30;99.90;;;;;;5030739;28;20044;-78
2022/08/13 00:46:43;;;;;;;3.70;3.40;;;22.10;99.90;;;;;;5032683;28;20033;-78
2022/08/13 00:49:13;;;;;;;3.80;3.40;;;22.10;99.90;;;;;;5032034;28;20033;-78
2022/08/13 00:51:42;;;;;;;3.40;3.10;;;22.20;99.90;;;;;;5031936;28;20545;-78
2022/08/13 00:54:11;;;;;;;6.32;3.50;;;22.10;99.90;;;;;;5032099;28;20593;-79
2022/08/13 00:56:37;;;;;;;5.90;3.78;;;22.00;99.90;;;;;;5032228;28;20041;-78
2022/08/13 00:59:13;;;;;;;3.90;3.47;;;21.90;99.90;;;;;;5032560;28;20406;-78
2022/08/13 01:01:50;;;;;;;4.65;3.58;;;22.20;99.90;;;;;;5032155;28;20117;-78
2022/08/13 01:04:21;;;;;;;3.75;3.45;;;22.40;99.90;;;;;;5032098;28;20425;-78
2022/08/13 01:06:49;;;;;;;4.22;3.17;;;22.30;99.90;;;;;;5031191;28;20035;-78
2022/08/13 01:09:15;;;;;;;6.60;3.60;;;22.20;99.90;;;;;;5031881;28;20025;-77
2022/08/13 01:11:41;;;;;;;4.30;3.22;;;22.30;99.90;;;;;;5032047;28;20034;-78
2022/08/13 01:14:08;;;;;;;6.15;3.92;;;22.40;99.90;;;;;;5031785;28;20095;-78
2022/08/13 01:16:38;;;;;;;4.45;3.58;;;22.50;99.90;;;;;;5031283;28;20033;-79
2022/08/13 01:19:09;;;;;;;4.32;3.22;;;22.40;99.90;;;;;;5030560;28;20501;-79
2022/08/13 01:21:40;;;;;;;5.80;3.25;;;22.30;99.90;;;;;;5031689;28;20117;-78
2022/08/13 01:24:09;;;;;;;5.13;3.63;;;22.10;99.90;;;;;;5031693;28;20021;-78
2022/08/13 01:26:35;;;;;;;5.13;3.25;;;22.20;99.90;;;;;;5031181;28;20045;-78
2022/08/13 01:29:05;;;;;;;5.82;3.50;;;22.40;99.90;;;;;;5031533;28;20581;-78
2022/08/13 01:31:36;;;;;;;4.38;3.20;;;22.10;99.90;;;;;;5031390;28;20037;-78
2022/08/13 01:34:03;;;;;;;3.60;3.20;;;22.00;99.90;;;;;;5035084;28;20048;-78
2022/08/13 01:36:30;;;;;;;3.80;3.40;;;22.00;99.90;;;;;;5035677;28;20025;-78
2022/08/13 01:38:57;;;;;;;4.65;3.47;;;22.00;99.90;;;;;;5035435;28;20025;-77
2022/08/13 01:41:36;;;;;;;4.18;3.22;;;22.00;99.90;;;;;;5035201;28;20045;-78
2022/08/13 01:44:05;;;;;;;4.40;3.35;;;21.90;99.90;;;;;;5035234;28;20394;-78
2022/08/13 01:52:08;;;;;;;4.70;3.35;;;21.90;99.90;;;;;;5035414;28;20067;-78
2022/08/13 01:54:36;;;;;;;6.55;3.20;;;21.80;99.90;;;;;;5035167;28;20556;-78
2022/08/13 01:57:04;;;;;;;3.53;3.10;;;21.60;99.90;;;;;;5033984;28;20105;-78
2022/08/13 01:59:36;;;;;;;5.35;3.38;;;21.60;99.90;;;;;;5035027;28;20025;-77
2022/08/13 02:02:04;;;;;;;4.20;3.10;;;21.50;99.90;;;;;;5034814;28;20048;-78
2022/08/13 02:04:30;;;;;;;3.42;3.13;;;21.60;99.90;;;;;;5034908;28;20437;-77
2022/08/13 02:06:59;;;;;;;3.42;3.00;;;21.50;99.90;;;;;;5034770;28;20493;-78
2022/08/13 02:09:26;;;;;;;3.22;2.90;;;21.50;99.90;;;;;;5034737;28;20021;-78
2022/08/13 02:11:52;;;;;;;3.42;2.70;;;21.40;99.90;;;;;;5034873;28;20426;-78
2022/08/13 02:14:21;;;;;;;4.07;3.10;;;21.40;99.90;;;;;;5034726;28;20033;-78
2022/08/13 02:16:47;;;;;;;3.20;2.90;;;21.40;99.90;;;;;;5034548;28;20037;-78
2022/08/13 02:19:13;;;;;;;4.15;2.70;;;21.40;99.90;;;;;;5034412;28;20022;-78
2022/08/13 02:21:44;;;;;;;4.10;3.00;;;21.50;99.90;;;;;;5034467;28;20042;-78
2022/08/13 02:24:13;;;;;;;3.38;2.88;;;21.50;99.90;;;;;;5034467;28;20022;-77
2022/08/13 02:26:42;;;;;;;4.15;2.67;;;21.50;99.90;;;;;;5034378;28;20406;-78
2022/08/13 02:29:09;;;;;;;2.90;2.60;;;21.50;99.90;;;;;;5034320;28;20042;-78
2022/08/13 02:31:35;;;;;;;3.00;2.70;;;21.50;99.90;;;;;;5034290;28;20022;-78
2022/08/13 02:34:01;;;;;;;8.27;3.00;;;21.30;99.90;;;;;;5034286;28;20037;-78
2022/08/13 02:36:27;;;;;;;5.55;2.75;;;21.30;99.90;;;;;;5034292;28;20013;-78
2022/08/13 02:38:55;;;;;;;3.17;2.50;;;21.30;99.90;;;;;;5034143;28;20094;-78
2022/08/13 02:41:43;;;;;;;5.07;2.50;;;21.20;99.90;;;;;;5034325;28;20069;-78
2022/08/13 02:44:14;;;;;;;2.60;2.40;;;21.30;1.00;;;;;;5032334;28;20108;-78
2022/08/13 02:46:48;;;;;;;3.10;2.70;;;21.10;1.00;;;;;;5032834;28;20030;-78
2022/08/13 02:49:13;;;;;;;3.58;2.78;;;21.10;99.90;;;;;;5034519;28;20037;-78
2022/08/13 02:51:39;;;;;;;3.03;2.45;;;20.80;1.00;;;;;;5034114;28;20021;-77
2022/08/13 02:54:06;;;;;;;5.10;2.78;;;20.70;99.90;;;;;;5033922;28;20103;-77
2022/08/13 02:56:33;;;;;;;3.70;2.75;;;20.80;1.00;;;;;;5034346;28;20021;-77
2022/08/13 02:58:59;;;;;;;5.28;2.97;;;20.90;1.00;;;;;;5033896;28;20148;-77
2022/08/13 03:01:25;;;;;;;4.20;2.70;;;20.80;1.00;;;;;;5033319;28;20108;-78
2022/08/13 03:03:52;;;;;;;4.53;2.67;;;20.70;1.00;;;;;;5033862;28;20437;-78
2022/08/13 03:06:19;;;;;;;3.20;2.38;;;20.60;1.00;;;;;;5034079;28;20030;-77
2022/08/13 03:08:54;;;;;;;4.32;2.40;;;20.60;1.00;;;;;;5032407;28;20029;-77
2022/08/13 03:11:20;;;;;;;5.38;2.53;;;20.80;1.00;;;;;;5033796;28;20031;-78
2022/08/13 03:14:10;;;;;;;5.32;2.45;;;20.80;1.00;;;;;;5033617;28;20406;-77
2022/08/13 03:16:39;;;;;;;5.07;2.60;;;20.70;1.00;;;;;;5033358;28;20044;-78
2022/08/13 03:19:06;;;;;;;5.63;2.72;;;20.50;1.00;;;;;;5033601;28;20497;-78
2022/08/13 03:21:38;;;;;;;5.25;2.45;;;20.50;1.00;;;;;;5033348;28;20033;-77
2022/08/13 03:24:05;;;;;;;2.78;2.40;;;20.60;1.00;;;;;;5033423;28;20036;-78
2022/08/13 03:26:31;;;;;;;4.13;2.78;;;20.70;1.00;;;;;;5033285;28;20080;-78
2022/08/13 03:28:59;;;;;;;7.38;2.60;;;20.80;1.00;;;;;;5033540;28;20083;-77
2022/08/13 03:31:27;;;;;;;4.80;2.45;;;20.80;1.00;;;;;;5032817;28;20040;-78
2022/08/13 03:33:53;;;;;;;2.97;2.70;;;20.50;1.00;;;;;;5033171;28;20041;-78
2022/08/13 03:36:20;;;;;;;4.00;2.50;;;20.60;1.00;;;;;;5033628;28;20095;-78
2022/08/13 03:38:46;;;;;;;3.45;2.72;;;20.50;1.00;;;;;;5033073;28;20032;-78
2022/08/13 03:41:14;;;;;;;3.08;2.60;;;20.40;1.00;;;;;;5033435;28;20026;-78
2022/08/13 03:43:45;;;;;;;3.78;2.72;;;20.30;1.00;;;;;;5033311;28;20037;-77
2022/08/13 03:46:22;;;;;;;2.50;2.30;;;20.50;1.00;;;;;;5032805;28;20041;-79
2022/08/13 03:48:49;;;;;;;3.95;3.00;;;20.50;1.00;;;;;;5033203;28;20069;-78
2022/08/13 03:51:16;;;;;;;4.43;2.88;;;20.40;1.00;;;;;;5032960;28;20026;-78
2022/08/13 03:53:43;;;;;;;3.25;2.75;;;20.30;1.00;;;;;;5033134;28;20029;-77
2022/08/13 03:56:11;;;;;;;4.78;2.42;;;20.20;1.00;;;;;;5032200;28;20036;-77
2022/08/13 03:58:40;;;;;;;2.60;2.40;;;20.00;1.00;;;;;;5032938;28;20037;-78
2022/08/13 04:01:06;;;;;;;2.60;2.38;;;20.00;1.00;;;;;;5032701;28;20029;-77
2022/08/13 04:03:41;;;;;;;5.20;2.67;;;20.00;1.00;;;;;;5032711;28;20072;-77
2022/08/13 04:06:16;;;;;;;3.28;2.60;;;20.00;1.00;;;;;;5032791;28;20033;-77
2022/08/13 04:08:44;;;;;;;6.45;2.72;;;19.90;1.00;;;;;;5032464;28;20521;-77
2022/08/13 04:11:17;;;;;;;3.03;2.45;;;19.90;1.00;;;;;;5032521;28;20483;-78
2022/08/13 04:13:43;;;;;;;4.28;2.80;;;19.80;1.00;;;;;;5032163;28;20120;-77
2022/08/13 04:16:10;;;;;;;2.95;2.70;;;19.80;1.00;;;;;;5032887;28;20053;-78
2022/08/13 04:18:37;;;;;;;2.95;2.60;;;19.90;1.00;;;;;;5032415;28;20409;-78
2022/08/13 04:21:06;;;;;;;2.45;2.25;;;19.90;1.00;;;;;;5032394;28;20267;-77
2022/08/13 04:23:37;;;;;;;7.00;2.47;;;19.80;1.00;;;;;;5032433;28;20445;-78
2022/08/13 04:26:03;;;;;;;4.63;2.60;;;20.00;1.00;;;;;;5032037;28;20504;-78
2022/08/13 04:28:29;;;;;;;2.65;2.38;;;20.10;1.00;;;;;;5036028;28;20021;-78
2022/08/13 04:30:54;;;;;;;3.72;2.45;;;20.30;1.00;;;;;;5052437;28;20029;-78
2022/08/13 04:33:20;;;;;;;2.50;2.30;;;20.30;1.00;;;;;;5052217;28;20375;-78
2022/08/13 04:35:46;;;;;;;4.97;2.20;;;20.40;1.00;;;;;;5052201;28;20498;-78
2022/08/13 04:38:13;;;;;;;4.53;2.55;;;20.50;1.00;;;;;;5052080;28;20395;-78
2022/08/13 04:40:41;;;;;;;2.65;2.30;;;20.50;1.00;;;;;;5052217;28;20025;-77
2022/08/13 04:43:07;;;;;;;3.40;2.30;;;20.40;1.00;;;;;;5051870;28;20059;-77
2022/08/13 04:45:34;;;;;;;5.18;2.50;;;20.50;1.00;;;;;;5051903;28;20032;-78
2022/08/13 04:48:04;;;;;;;3.53;2.30;;;20.40;1.00;;;;;;5052094;28;20036;-78
2022/08/13 04:50:32;;;;;;;4.18;2.65;;;20.20;1.00;;;;;;5051931;28;20056;-78
2022/08/13 04:52:59;;;;;;;3.67;2.58;;;20.00;1.00;;;;;;5051966;28;20477;-78
2022/08/13 04:55:24;;;;;;;2.80;2.60;;;20.10;1.00;;;;;;5052011;28;20063;-78
2022/08/13 04:57:50;;;;;;;5.25;2.58;;;20.30;1.00;;;;;;5051908;28;20525;-78
2022/08/13 05:00:16;;;;;;;3.67;2.70;;;20.40;1.00;;;;;;5051819;28;20029;-77
2022/08/13 05:02:43;;;;;;;4.93;2.70;;;20.30;1.00;;;;;;5051770;28;20041;-78
2022/08/13 05:05:11;;;;;;;4.13;2.40;;;20.40;1.00;;;;;;5052001;28;20029;-77
2022/08/13 05:07:37;;;;;;;3.47;2.45;;;20.20;1.00;;;;;;5055393;28;20496;-78
2022/08/13 05:10:04;;;;;;;4.03;2.80;;;20.10;1.00;;;;;;5055858;28;20028;-77
2022/08/13 05:12:36;;;;;;;5.10;2.60;;;20.20;1.00;;;;;;5056022;28;20028;-77
2022/08/13 05:15:04;;;;;;;3.33;2.47;;;20.40;1.00;;;;;;5055671;28;20106;-77
2022/08/13 05:17:30;;;;;;;3.00;2.65;;;20.40;1.00;;;;;;5052592;28;20022;-78
2022/08/13 05:19:56;;;;;;;2.58;2.38;;;20.40;1.00;;;;;;5034369;28;20036;-77
2022/08/13 05:22:23;;;;;;;5.30;2.60;;;20.30;1.00;;;;;;5034774;28;20042;-77
2022/08/13 05:24:50;;;;;;;4.75;2.30;;;20.20;1.00;;;;;;5035571;28;20037;-77
2022/08/13 05:27:16;;;;;;;3.33;2.40;;;20.10;1.00;;;;;;5034974;28;20053;-77
2022/08/13 05:29:42;;;;;;;4.40;2.80;;;20.20;1.00;;;;;;5035767;28;20025;-77
2022/08/13 05:32:10;;;;;;;2.75;2.47;;;20.40;1.00;;;;;;5035428;28;20030;-77
2022/08/13 05:34:37;;;;;;;6.15;2.60;;;20.50;1.00;;;;;;5035458;28;20033;-77
2022/08/13 05:37:03;;;;;;;3.13;2.50;;;20.50;1.00;;;;;;5035736;28;20505;-77
2022/08/13 05:39:29;;;;;;;3.00;2.70;;;20.60;1.00;;;;;;5035182;28;20017;-78
2022/08/13 05:41:55;;;;;;;4.63;2.58;;;20.60;1.00;;;;;;5035127;28;20033;-77
2022/08/13 05:44:22;;;;;;;2.90;2.50;;;20.60;1.00;;;;;;5035274;28;20021;-78
2022/08/13 05:46:48;;;;;;;5.57;2.60;;;20.60;1.00;;;;;;5035261;28;20402;-78
2022/08/13 05:49:15;;;;;;;5.07;2.90;;;20.70;1.00;;;;;;5035201;28;20482;-78
2022/08/13 05:51:43;;;;;;;5.78;2.97;;;20.70;1.00;;;;;;5035422;28;20026;-77
2022/08/13 05:54:10;;;;;;;3.80;2.40;;;20.70;1.00;;;;;;5035110;28;20498;-77
2022/08/13 05:56:38;;;;;;;3.88;2.53;;;20.80;1.00;;;;;;5034681;28;20113;-77
2022/08/13 06:03:22;;;;;;;2.92;2.63;;;20.90;1.00;;;;;;5033447;28;20087;-79
2022/08/13 06:04:41;;;;;;;4.20;2.35;;;21.10;1.00;;;;;;5035288;28;20033;-79
2022/08/13 06:07:09;;;;;;;4.90;2.53;;;21.10;1.00;;;;;;5035088;28;20386;-77
2022/08/13 06:09:36;;;;;;;3.83;2.53;;;21.20;1.00;;;;;;5034140;28;20053;-79
2022/08/13 06:12:03;;;;;;;5.60;2.65;;;21.20;1.00;;;;;;5034740;28;20061;-77
2022/08/13 06:14:33;;;;;;;4.65;2.60;;;21.20;1.00;;;;;;5035064;28;20542;-78
2022/08/13 06:17:02;;;;;;;3.15;2.47;;;21.20;1.00;;;;;;5034147;28;20044;-80
2022/08/13 06:19:38;;;;;;;4.85;2.50;;;21.40;1.00;;;;;;5033482;28;20163;-81
2022/08/13 06:22:04;;;;;;;2.42;2.22;;;21.50;1.00;;;;;;5034609;28;20121;-77
2022/08/13 06:24:32;;;;;;;2.92;2.33;;;21.60;1.00;;;;;;5033918;28;20394;-78
2022/08/13 06:27:00;;;;;;;5.28;2.10;;;21.70;1.00;;;;;;5033275;28;20053;-78
2022/08/13 06:29:28;;;;;;;7.80;2.25;;;21.70;1.00;;;;;;5034315;28;20045;-78
2022/08/13 06:31:56;;;;;;;4.15;2.60;;;21.80;1.00;;;;;;5034647;28;20116;-78
2022/08/13 06:34:22;;;;;;;6.90;2.90;;;22.10;1.00;;;;;;5034422;28;20485;-78
2022/08/13 06:36:48;;;;;;;2.90;2.65;;;22.20;1.00;;;;;;5034682;28;20033;-77
2022/08/13 06:39:15;;;;;;;3.08;2.78;;;22.40;1.00;;;;;;5034093;28;20109;-77
2022/08/13 06:41:43;;;;;;;3.95;2.70;;;22.20;1.00;;;;;;5034108;28;20113;-80
2022/08/13 06:44:09;;;;;;;4.75;3.03;;;22.50;1.00;;;;;;5034415;28;20465;-78
2022/08/13 06:46:34;;;;;;;4.68;3.38;;;22.50;1.00;;;;;;5034256;28;20109;-77
2022/08/13 06:49:02;;;;;;;3.22;2.92;;;22.60;1.00;;;;;;5034090;28;20032;-78
2022/08/13 06:51:28;;;;;;;3.90;3.00;;;22.70;1.00;;;;;;5034180;28;20021;-78
2022/08/13 06:53:55;;;;;;;4.93;2.90;;;22.70;1.00;;;;;;5033581;28;20036;-78
2022/08/13 06:56:23;;;;;;;5.13;3.08;;;22.70;1.00;;;;;;5033956;28;20056;-78
2022/08/13 06:58:51;;;;;;;3.05;2.85;;;22.80;1.00;;;;;;5034147;28;20025;-78
2022/08/13 07:01:22;;;;;;;4.65;3.20;;;22.90;1.00;;;;;;5033829;28;20482;-77
2022/08/13 07:03:49;;;;;;;3.00;2.80;;;23.10;1.00;;;;;;5034410;28;20053;-78
2022/08/13 07:06:16;;;;;;;3.70;2.85;;;23.10;1.00;;;;;;5033371;28;20413;-78
2022/08/13 07:08:43;;;;;;;5.78;3.55;;;23.20;1.00;;;;;;5033163;28;20025;-78
2022/08/13 07:11:24;;;;;;;3.45;3.00;;;23.30;1.00;;;;;;5033639;28;20052;-79
2022/08/13 07:13:53;;;;;;;3.40;3.10;;;23.40;1.00;;;;;;5033647;28;20458;-77
2022/08/13 07:16:25;;;;;;;7.10;3.20;;;23.50;1.00;;;;;;5033565;28;20063;-78
2022/08/13 07:18:52;;;;;;;5.95;3.28;;;23.40;1.00;;;;;;5033394;28;20160;-78
2022/08/13 07:21:20;;;;;;;5.40;3.10;;;23.50;1.00;;;;;;5033458;28;20033;-77
2022/08/13 07:23:48;;;;;;;5.20;3.00;;;23.50;1.00;;;;;;5032939;28;20060;-78
2022/08/13 07:26:16;;;;;;;4.88;3.20;;;23.70;1.00;;;;;;5032528;28;20041;-77
2022/08/13 07:28:44;;;;;;;3.90;3.00;;;23.80;99.90;;;;;;5032479;28;20022;-78
2022/08/13 07:31:10;;;;;;;3.88;2.92;;;23.80;1.00;;;;;;5032472;28;20033;-78
2022/08/13 07:33:38;;;;;;;3.20;2.90;;;23.90;1.00;;;;;;5033446;28;20049;-78
2022/08/13 07:36:06;;;;;;;3.08;2.88;;;24.00;1.00;;;;;;5032688;28;20037;-77
2022/08/13 07:38:33;;;;;;;3.15;2.88;;;24.00;99.90;;;;;;5032880;28;20097;-78
2022/08/13 07:41:02;;;;;;;3.47;3.15;;;24.20;99.90;;;;;;5032961;28;20470;-77
2022/08/13 07:43:29;;;;;;;3.63;3.08;;;24.30;99.90;;;;;;5032904;28;20029;-79
2022/08/13 07:46:10;;;;;;;3.28;2.83;;;24.40;99.90;;;;;;5031451;28;20029;-77
2022/08/13 07:48:49;;;;;;;3.55;2.97;;;24.40;99.90;;;;;;5033362;28;20080;-79
2022/08/13 07:51:21;;;;;;;3.83;2.60;;;24.40;99.90;;;;;;5032435;28;20211;-79
2022/08/13 07:53:52;;;;;;;4.78;2.75;;;24.60;99.90;;;;;;5032737;28;20487;-80
2022/08/13 07:56:28;;;;;;;2.88;2.67;;;24.70;99.90;;;;;;5032431;28;20034;-80
2022/08/13 07:59:01;;;;;;;7.80;2.80;;;24.70;99.90;;;;;;5033018;28;20024;-79
2022/08/13 08:01:28;;;;;;;3.03;2.70;;;24.80;1.00;;;;;;5032533;28;20056;-81
2022/08/13 08:03:57;;;;;;;4.32;2.85;;;24.80;99.90;;;;;;5032733;28;20477;-81
2022/08/13 08:06:24;;;;;;;5.75;2.85;;;24.90;99.90;;;;;;5032312;28;20025;-81
2022/08/13 08:08:53;;;;;;;4.45;2.70;;;25.00;99.90;;;;;;5032396;28;20432;-81
2022/08/13 08:14:08;;;;;;;5.78;2.85;;;25.20;99.90;;;;;;5032842;28;20032;-81
2022/08/13 08:16:34;;;;;;;2.97;2.60;;;25.40;99.90;;;;;;5032477;28;20453;-81
2022/08/13 08:19:00;;;;;;;4.43;2.50;;;25.50;99.90;;;;;;5032433;28;20552;-81
2022/08/13 08:21:28;;;;;;;3.13;2.50;;;25.60;99.90;;;;;;5031750;28;20044;-81
2022/08/13 08:23:59;;;;;;;4.55;2.70;;;25.60;99.90;;;;;;5032567;28;20068;-81
2022/08/13 08:26:27;;;;;;;2.75;2.50;;;25.80;99.90;;;;;;5032080;28;20056;-81
2022/08/13 08:28:55;;;;;;;3.38;2.50;;;25.80;99.90;;;;;;5032085;28;20063;-81
2022/08/13 08:31:21;;;;;;;6.53;2.30;;;25.80;99.90;;;;;;5032236;28;20071;-81
2022/08/13 08:33:47;;;;;;;4.40;2.58;;;25.90;99.90;;;;;;5032441;28;20029;-81
2022/08/13 08:36:14;;;;;;;3.03;2.30;;;25.80;99.90;;;;;;5031631;28;20034;-79
2022/08/13 08:44:23;;;;;;;2.95;2.42;;;26.00;99.90;;;;;;5032656;28;20052;-79
2022/08/13 08:46:59;;;;;;;3.08;2.30;;;26.10;99.90;;;;;;5032079;28;20060;-78
2022/08/13 08:49:26;;;;;;;3.17;2.50;;;26.00;99.90;;;;;;5031485;28;20100;-79
2022/08/13 08:51:53;;;;;;;3.03;2.28;;;26.10;99.90;;;;;;5032097;28;20091;-78
2022/08/13 08:54:22;;;;;;;3.03;2.53;;;26.10;99.90;;;;;;5032048;28;20032;-78
2022/08/13 08:56:49;;;;;;;4.57;2.90;;;26.20;99.90;;;;;;5030995;28;20121;-78
2022/08/13 08:59:15;;;;;;;4.22;2.47;;;26.40;99.90;;;;;;5031994;28;20147;-79
2022/08/13 09:01:42;;;;;;;3.70;2.85;;;26.70;99.90;;;;;;5031842;28;20083;-78
2022/08/13 09:04:09;;;;;;;2.72;2.53;;;26.70;99.90;;;;;;5031823;28;20474;-78
2022/08/13 09:06:35;;;;;;;5.65;2.80;;;27.00;99.90;;;;;;5031619;28;20040;-79
2022/08/13 09:09:02;;;;;;;4.75;2.65;;;27.10;99.90;;;;;;5031904;28;20487;-79
2022/08/13 09:11:34;;;;;;;5.60;2.75;;;26.90;99.90;;;;;;5031805;28;20045;-79
2022/08/13 09:14:08;;;;;;;2.95;2.60;;;27.00;99.90;;;;;;5031792;28;20033;-78
2022/08/13 09:16:37;;;;;;;5.97;2.50;;;27.00;99.90;;;;;;5031671;28;20579;-79
2022/08/13 09:19:06;;;;;;;3.53;2.33;;;27.00;99.90;;;;;;5014288;28;20041;-78
2022/08/13 09:21:32;;;;;;;4.97;2.70;;;27.20;99.90;;;;;;5011848;28;20045;-79
2022/08/13 09:24:00;;;;;;;3.22;2.47;;;27.30;99.90;;;;;;5012427;28;20117;-79
2022/08/13 09:26:25;;;;;;;6.05;2.58;;;27.30;99.90;;;;;;5011717;28;20060;-79
2022/08/13 09:28:55;;;;;;;3.78;2.63;;;27.50;99.90;;;;;;5018775;28;20100;-79
2022/08/13 09:31:21;;;;;;;4.68;2.40;;;27.70;99.90;;;;;;5031907;28;20096;-79
2022/08/13 09:33:46;;;;;;;2.83;2.63;;;27.60;99.90;;;;;;5031143;28;20573;-79
2022/08/13 09:36:13;;;;;;;5.38;2.50;;;27.50;99.90;;;;;;5031500;28;20187;-79
2022/08/13 09:38:39;;;;;;;4.78;2.60;;;27.60;99.90;;;;;;5031703;28;20040;-79
2022/08/13 09:41:20;;;;;;;2.88;2.53;;;27.50;99.90;;;;;;5031602;28;20040;-79
2022/08/13 09:43:47;;;;;;;2.88;2.30;;;27.70;99.90;;;;;;5031461;28;20045;-80
2022/08/13 09:46:21;;;;;;;2.83;2.10;;;27.80;99.90;;;;;;5030931;28;20477;-79
2022/08/13 09:48:50;;;;;;;5.93;2.30;;;27.70;99.90;;;;;;5030813;28;20427;-79
2022/08/13 09:51:17;;;;;;;6.00;2.40;;;27.90;99.90;;;;;;5031644;28;20029;-79
2022/08/13 09:53:46;;;;;;;4.03;2.42;;;28.00;99.90;;;;;;5033565;28;20082;-79
2022/08/13 09:56:17;;;;;;;4.95;2.20;;;28.10;99.90;;;;;;5034850;28;20037;-79
2022/08/13 09:58:44;;;;;;;5.03;2.30;;;28.20;99.90;;;;;;5034742;28;20044;-79
2022/08/13 10:01:10;;;;;;;4.15;2.35;;;28.40;99.90;;;;;;5034943;28;20132;-82
2022/08/13 10:03:38;;;;;;;4.68;2.42;;;28.50;99.90;;;;;;5034899;28;20067;-79
2022/08/13 10:06:07;;;;;;;5.47;2.15;;;28.50;99.90;;;;;;5034696;28;20475;-79
2022/08/13 10:08:34;;;;;;;3.28;2.75;;;28.50;99.90;;;;;;5034758;28;20048;-77
2022/08/13 10:11:00;;;;;;;3.10;2.15;;;28.50;99.90;;;;;;5034624;28;20021;-77
2022/08/13 10:13:26;;;;;;;3.08;2.20;;;28.70;99.90;;;;;;5034720;28;20112;-77
2022/08/13 10:15:51;;;;;;;2.53;2.20;;;28.60;99.90;;;;;;5034301;28;20527;-77
2022/08/13 10:18:17;;;;;;;3.17;2.20;;;28.90;99.90;;;;;;5034292;28;20196;-77
2022/08/13 10:20:48;;;;;;;2.55;2.13;;;29.00;99.90;;;;;;5034531;28;20033;-77
2022/08/13 10:23:15;;;;;;;2.80;2.03;;;29.10;99.90;;;;;;5034343;28;20048;-77
2022/08/13 10:25:43;;;;;;;5.13;2.38;;;29.20;99.90;;;;;;5034468;28;20105;-77
2022/08/13 10:28:29;;;;;;;5.30;2.50;;;29.20;99.90;;;;;;5034402;28;20048;-77
2022/08/13 10:30:54;;;;;;;4.85;2.63;;;29.40;99.90;;;;;;5034029;28;20437;-78
2022/08/13 10:33:22;;;;;;;3.78;2.33;;;29.50;99.90;;;;;;5034423;28;20033;-77
2022/08/13 10:35:55;;;;;;;3.35;2.10;;;29.50;99.90;;;;;;5034732;28;20026;-77
2022/08/13 10:38:26;;;;;;;4.28;2.08;;;29.70;99.90;;;;;;5034308;28;20087;-77
2022/08/13 10:41:00;;;;;;;5.78;2.40;;;30.00;99.90;;;;;;5034277;28;20036;-77
2022/08/13 10:43:27;;;;;;;4.30;2.25;;;30.20;99.90;;;;;;5034075;28;20041;-77
2022/08/13 10:45:59;;;;;;;2.85;2.10;;;30.50;99.90;;;;;;5034241;28;20382;-77
2022/08/13 10:48:28;;;;;;;2.90;2.28;;;30.70;99.90;;;;;;5034182;28;20056;-77
2022/08/13 10:50:55;;;;;;;3.05;2.65;;;31.50;99.90;;;;;;5034079;28;20482;-78
2022/08/13 10:56:06;;;;;;;3.45;2.65;;;37.50;99.90;;;;;;5034343;28;20039;-77
2022/08/13 10:58:33;;;;;;;4.03;2.70;;;40.00;99.90;;;;;;5034186;28;20025;-78
2022/08/13 11:01:03;;;;;;;3.65;2.60;;;41.80;99.90;;;;;;5033335;28;20424;-77
2022/08/13 11:03:33;;;;;;;4.95;2.38;;;43.30;99.90;;;;;;5033438;28;20067;-78
2022/08/13 11:06:04;;;;;;;3.15;2.10;;;44.90;99.90;;;;;;5033827;28;20387;-78
2022/08/13 11:08:36;;;;;;;2.67;1.92;;;45.20;99.90;;;;;;5033879;28;20029;-78
2022/08/13 11:11:03;;;;;;;2.20;2.10;;;45.30;99.90;;;;;;5033952;28;20501;-78
2022/08/13 11:13:31;;;;;;;3.65;2.60;;;46.20;99.90;;;;;;5033530;28;20036;-78
2022/08/13 11:15:58;;;;;;;2.40;2.08;;;46.20;99.90;;;;;;5033238;28;20501;-78
2022/08/13 11:18:23;;;;;;;2.25;2.10;;;45.90;99.90;;;;;;5033258;28;20052;-81
2022/08/13 11:21:07;;;;;;;2.58;2.00;;;46.40;99.90;;;;;;5033661;28;20486;-78
2022/08/13 11:23:35;;;;;;;3.08;2.10;;;46.00;99.90;;;;;;5033732;28;20045;-78
2022/08/13 11:26:01;;;;;;;2.47;2.08;;;46.30;99.90;;;;;;5033316;28;20533;-78
2022/08/13 11:28:26;;;;;;;2.35;2.10;;;46.30;99.90;;;;;;5032750;28;20498;-77
2022/08/13 11:30:54;;;;;;;3.53;2.00;;;48.00;99.90;;;;;;5033402;28;20028;-79
2022/08/13 11:33:21;;;;;;;3.00;1.88;;;48.20;99.90;;;;;;5033607;28;20445;-78
2022/08/13 11:35:47;;;;;;;3.22;1.95;;;47.80;99.90;;;;;;5033333;28;20025;-78
2022/08/13 11:38:15;;;;;;;2.85;2.00;;;47.70;99.90;;;;;;5033094;28;20039;-78
2022/08/13 11:40:56;;;;;;;4.53;2.28;;;47.10;99.90;;;;;;5033590;28;20083;-78
2022/08/13 11:43:27;;;;;;;3.65;2.00;;;47.80;99.90;;;;;;5033158;28;20156;-79
2022/08/13 11:45:53;;;;;;;4.63;2.13;;;48.40;99.90;;;;;;5033071;28;20075;-79
2022/08/13 11:48:20;;;;;;;1.80;1.70;;;48.50;99.90;;;;;;5032875;28;20034;-78
2022/08/13 11:50:47;;;;;;;2.15;1.95;;;49.20;99.90;;;;;;5032954;28;20053;-78
2022/08/13 11:53:13;;;;;;;2.42;2.20;;;48.90;99.90;;;;;;5032886;28;20030;-79
2022/08/13 11:55:38;;;;;;;2.47;2.17;;;47.50;99.90;;;;;;5032725;28;20071;-79
2022/08/13 11:58:06;;;;;;;1.73;1.63;;;48.10;99.90;;;;;;5032699;28;20033;-78
2022/08/13 12:00:34;;;;;;;4.47;2.03;;;47.60;99.90;;;;;;5032689;28;20470;-79
2022/08/13 12:03:00;;;;;;;2.85;1.92;;;46.50;99.90;;;;;;5032853;28;20124;-79
2022/08/13 12:05:25;;;;;;;2.15;1.95;;;48.10;99.90;;;;;;5032707;28;20064;-78
2022/08/13 12:07:51;;;;;;;4.07;2.30;;;48.60;99.90;;;;;;5032704;28;20109;-79
2022/08/13 12:10:17;;;;;;;2.40;2.13;;;48.20;99.90;;;;;;5031352;28;20033;-78
2022/08/13 12:12:44;;;;;;;4.03;2.22;;;48.90;99.90;;;;;;5032584;28;20029;-79
2022/08/13 12:15:11;;;;;;;2.70;2.13;;;48.50;99.90;;;;;;5032307;28;20030;-78
2022/08/13 12:17:42;;;;;;;2.50;2.30;;;49.00;99.90;;;;;;5032013;28;20036;-78
2022/08/13 12:20:18;;;;;;;4.32;3.38;;;49.90;99.90;;;;;;5032465;28;20025;-79
2022/08/13 12:22:43;;;;;;;2.63;2.42;;;48.80;99.90;;;;;;5032181;28;20124;-78
2022/08/13 12:25:10;;;;;;;2.15;1.90;;;49.00;99.90;;;;;;5032661;28;20394;-78
2022/08/13 12:27:37;;;;;;;2.53;1.92;;;49.40;99.90;;;;;;5031723;28;20140;-79
2022/08/13 12:30:04;;;;;;;4.40;1.98;;;49.50;99.90;;;;;;5032183;28;20030;-79
2022/08/13 12:32:29;;;;;;;3.47;2.10;;;50.20;99.90;;;;;;5032262;28;20022;-79
2022/08/13 12:34:55;;;;;;;4.07;2.10;;;49.00;99.90;;;;;;5032069;28;20104;-78
2022/08/13 12:37:23;;;;;;;3.55;2.00;;;47.30;99.90;;;;;;5032675;28;20047;-79
2022/08/13 12:39:53;;;;;;;2.03;1.80;;;46.60;99.90;;;;;;5032223;28;20020;-79
2022/08/13 12:42:20;;;;;;;2.50;2.10;;;47.00;99.90;;;;;;5031711;28;20037;-79
2022/08/13 12:44:45;;;;;;;3.65;1.95;;;47.60;99.90;;;;;;5032207;28;20022;-79
2022/08/13 12:47:11;;;;;;;2.63;1.90;;;49.80;99.90;;;;;;5032011;28;20422;-79
2022/08/13 12:49:37;;;;;;;3.58;2.03;;;50.20;99.90;;;;;;5031963;28;20033;-79
2022/08/13 12:52:03;;;;;;;2.28;2.03;;;49.50;99.90;;;;;;5032414;28;20099;-79
2022/08/13 12:54:28;;;;;;;3.75;2.17;;;50.20;99.90;;;;;;5031813;28;20506;-79
2022/08/13 12:56:54;;;;;;;2.10;1.90;;;50.10;99.90;;;;;;5031658;28;20060;-78
2022/08/13 12:59:20;;;;;;;3.03;1.95;;;49.50;99.90;;;;;;5032284;28;20034;-79
2022/08/13 13:01:51;;;;;;;2.22;2.08;;;49.00;99.90;;;;;;5031911;28;20041;-79
2022/08/13 13:04:17;;;;;;;4.80;1.90;;;49.00;99.90;;;;;;5031899;28;20022;-78
2022/08/13 13:06:43;;;;;;;2.13;1.88;;;49.30;99.90;;;;;;5032546;28;20057;-79
2022/08/13 13:09:08;;;;;;;2.05;1.85;;;48.80;99.90;;;;;;5031807;28;20415;-79
2022/08/13 13:11:34;;;;;;;3.08;1.90;;;48.20;99.90;;;;;;5030210;28;20482;-79
2022/08/13 13:14:00;;;;;;;2.00;1.80;;;47.90;99.90;;;;;;5031910;28;20017;-79
2022/08/13 13:16:26;;;;;;;3.50;2.00;;;47.20;99.90;;;;;;5031842;28;20061;-79
2022/08/13 13:18:52;;;;;;;2.38;1.70;;;47.60;99.90;;;;;;5031617;28;20501;-79
2022/08/13 13:21:18;;;;;;;2.65;1.80;;;46.70;99.90;;;;;;5031781;28;20049;-79